Freetown, Massachusetts
Current Conditions -  °F | °C
As of 4:52 AM on Friday 28 Nov 2014 (Local Time) from KTAN Reporting Station
Overcast Overcast  
Wind Chill: 25°   Ceiling: 1200
Heat Index: 31°   Visibility: 10mi
Dew Point: 27°   Wind: 6mph
Humidity: 85%   Direction: 310°NW
Pressure: 29.98"   Gusts: NA
Location:  41.782°N, 71.0542°W
Report Text: KTAN 280952Z AUTO 31005KT 10SM OVC012 M01/M03 A2998 RMK AO2 SNE02 SLP150 P0000 T10061028
Loading
Personal Weather Stations






























Interactive Weather Map New forecast layout! Learn more

10-Day Weather Forecast

Advertisements
Track Severe Weather on mobile